createdAt,value
2023-03-01T00:01:14.434Z,16.63
2023-03-01T00:03:41.376Z,14.63
2023-03-01T00:06:08.114Z,15.40
2023-03-01T00:08:35.676Z,14.18
2023-03-01T00:11:13.741Z,15.20
2023-03-01T00:13:41.066Z,15.93
2023-03-01T00:16:10.350Z,15.52
2023-03-01T00:18:37.179Z,15.48
2023-03-01T00:21:04.050Z,15.70
2023-03-01T00:23:30.802Z,16.30
2023-03-01T00:25:57.501Z,15.23
2023-03-01T00:28:24.432Z,14.65
2023-03-01T00:30:51.224Z,16.13
2023-03-01T00:33:17.985Z,15.02
2023-03-01T00:35:44.697Z,15.93
2023-03-01T00:38:11.605Z,15.07
2023-03-01T00:40:38.410Z,14.70
2023-03-01T00:43:05.251Z,13.60
2023-03-01T00:45:32.337Z,15.82
2023-03-01T00:47:59.361Z,15.55
2023-03-01T00:50:26.443Z,15.27
2023-03-01T00:52:57.012Z,15.15
2023-03-01T00:55:24.160Z,15.10
2023-03-01T00:57:50.825Z,15.80
2023-03-01T01:00:18.777Z,15.70
2023-03-01T01:02:45.637Z,15.70
2023-03-01T01:05:14.639Z,15.75
2023-03-01T01:07:41.477Z,15.90
2023-03-01T01:10:08.914Z,15.00
2023-03-01T01:12:35.686Z,15.48
2023-03-01T01:15:02.431Z,15.82
2023-03-01T01:17:29.608Z,14.98
2023-03-01T01:19:56.476Z,17.17
2023-03-01T01:22:23.233Z,16.15
2023-03-01T01:24:49.864Z,15.13
2023-03-01T01:27:16.538Z,15.35
2023-03-01T01:29:43.348Z,16.50
2023-03-01T01:32:10.101Z,15.25
2023-03-01T01:34:36.887Z,14.52
2023-03-01T01:37:04.068Z,16.05
2023-03-01T01:39:30.787Z,15.10
2023-03-01T01:41:57.422Z,16.95
2023-03-01T01:44:26.660Z,15.50
2023-03-01T01:47:04.555Z,16.23
2023-03-01T01:49:39.388Z,15.05
2023-03-01T01:52:24.771Z,16.08
2023-03-01T01:55:00.830Z,15.82
2023-03-01T01:57:35.288Z,15.93
2023-03-01T02:00:11.979Z,16.02
2023-03-01T02:02:41.810Z,16.02
2023-03-01T02:05:36.173Z,15.85
2023-03-01T02:08:03.260Z,15.57
2023-03-01T02:10:31.012Z,15.10
2023-03-01T02:12:58.680Z,17.33
2023-03-01T02:15:27.515Z,17.30
2023-03-01T02:17:55.759Z,15.73
2023-03-01T02:20:28.396Z,14.85
2023-03-01T02:22:56.065Z,15.35
2023-03-01T02:25:28.356Z,15.70
2023-03-01T02:28:19.791Z,15.80
2023-03-01T02:31:08.763Z,16.70
2023-03-01T02:33:38.892Z,15.13
2023-03-01T02:36:10.594Z,16.08
2023-03-01T02:38:37.237Z,16.05
2023-03-01T02:41:06.781Z,16.75
2023-03-01T02:43:35.236Z,16.25
2023-03-01T02:46:13.791Z,16.23
2023-03-01T02:48:47.027Z,17.23
2023-03-01T02:51:51.464Z,14.85
2023-03-01T02:54:30.770Z,16.17
2023-03-01T02:56:58.269Z,16.35
2023-03-01T02:59:30.643Z,15.57
2023-03-01T03:01:57.509Z,15.63
2023-03-01T03:04:24.248Z,16.30
2023-03-01T03:06:52.024Z,16.27
2023-03-01T03:09:19.177Z,15.32
2023-03-01T03:11:46.089Z,15.73
2023-03-01T03:14:15.503Z,15.18
2023-03-01T03:16:43.932Z,16.00
2023-03-01T03:19:11.336Z,15.52
2023-03-01T03:21:38.696Z,16.48
2023-03-01T03:24:06.210Z,16.52
2023-03-01T03:26:33.534Z,15.57
2023-03-01T03:29:00.292Z,14.93
2023-03-01T03:31:27.308Z,15.63
2023-03-01T03:33:54.869Z,16.25
2023-03-01T03:36:24.621Z,16.40
2023-03-01T03:38:51.838Z,16.02
2023-03-01T03:41:19.344Z,15.98
2023-03-01T03:43:46.217Z,15.15
2023-03-01T03:46:15.195Z,15.73
2023-03-01T03:48:45.608Z,17.23
2023-03-01T03:51:14.849Z,16.10
2023-03-01T03:53:42.091Z,16.80
2023-03-01T03:56:09.619Z,15.05
2023-03-01T03:58:37.182Z,16.10
2023-03-01T04:01:04.333Z,15.63
2023-03-01T04:03:33.088Z,15.98
2023-03-01T04:06:01.111Z,17.05
2023-03-01T04:08:28.851Z,16.08
2023-03-01T04:11:21.452Z,17.33
2023-03-01T04:13:48.284Z,16.50
2023-03-01T04:16:15.036Z,16.58
2023-03-01T04:18:41.774Z,15.82
2023-03-01T04:21:08.465Z,15.68
2023-03-01T04:23:36.093Z,16.60
2023-03-01T04:26:02.892Z,16.63
2023-03-01T04:28:35.882Z,16.20
2023-03-01T04:31:14.629Z,16.55
2023-03-01T04:33:49.651Z,15.80
2023-03-01T04:36:17.383Z,17.33
2023-03-01T04:38:51.240Z,14.80
2023-03-01T04:41:21.499Z,16.42
2023-03-01T04:43:49.396Z,16.63
2023-03-01T04:46:19.312Z,16.13
2023-03-01T04:48:48.248Z,16.13
2023-03-01T04:51:15.603Z,15.75
2023-03-01T04:53:42.919Z,16.23
2023-03-01T04:56:10.340Z,16.42
2023-03-01T04:58:37.540Z,16.05
2023-03-01T05:01:16.361Z,15.73
2023-03-01T05:03:49.388Z,17.08
2023-03-01T05:06:16.894Z,14.18
2023-03-01T05:08:44.185Z,16.58
2023-03-01T05:11:12.338Z,16.45
2023-03-01T05:13:40.216Z,15.48
2023-03-01T05:16:12.384Z,17.17
2023-03-01T05:18:40.771Z,17.45
2023-03-01T05:21:11.277Z,18.33
2023-03-01T05:23:38.778Z,17.95
2023-03-01T05:26:09.558Z,17.20
2023-03-01T05:28:38.945Z,17.35
2023-03-01T05:31:10.799Z,17.00
2023-03-01T05:33:41.985Z,16.42
2023-03-01T05:36:10.792Z,17.35
2023-03-01T05:38:37.649Z,17.63
2023-03-01T05:41:04.707Z,17.40
2023-03-01T05:43:34.898Z,16.52
2023-03-01T05:46:01.645Z,17.48
2023-03-01T05:48:28.405Z,16.52
2023-03-01T05:50:55.126Z,16.40
2023-03-01T05:53:22.188Z,17.60
2023-03-01T05:55:50.662Z,17.80
2023-03-01T05:58:19.989Z,17.20
2023-03-01T06:00:48.692Z,17.10
2023-03-01T06:03:17.610Z,17.23
2023-03-01T06:05:44.782Z,18.17
2023-03-01T06:08:12.636Z,17.30
2023-03-01T06:10:39.449Z,17.55
2023-03-01T06:13:06.521Z,17.30
2023-03-01T06:15:33.438Z,16.38
2023-03-01T06:18:00.581Z,17.15
2023-03-01T06:20:29.767Z,16.83
2023-03-01T06:22:57.478Z,16.15
2023-03-01T06:25:26.813Z,19.17
2023-03-01T06:27:54.301Z,20.70
2023-03-01T06:30:23.849Z,18.23
2023-03-01T06:32:51.606Z,17.20
2023-03-01T06:35:19.588Z,19.13
2023-03-01T06:37:48.988Z,18.98
2023-03-01T06:40:16.406Z,18.25
2023-03-01T06:42:45.158Z,18.02
2023-03-01T06:45:12.537Z,20.05
2023-03-01T06:47:39.616Z,19.50
2023-03-01T06:50:07.080Z,20.42
2023-03-01T06:52:33.915Z,18.05
2023-03-01T06:55:01.235Z,19.98
2023-03-01T06:57:28.111Z,19.35
2023-03-01T06:59:54.909Z,18.15
2023-03-01T07:02:21.697Z,20.33
2023-03-01T07:04:53.471Z,18.80
2023-03-01T07:07:20.272Z,18.88
2023-03-01T07:09:47.854Z,19.45
2023-03-01T07:12:14.600Z,19.05
2023-03-01T07:14:41.736Z,18.42
2023-03-01T07:17:08.466Z,19.02
2023-03-01T07:19:35.283Z,18.25
2023-03-01T07:22:02.024Z,18.25
2023-03-01T07:24:29.300Z,18.27
2023-03-01T07:26:56.164Z,18.30
2023-03-01T07:29:22.826Z,18.95
2023-03-01T07:31:49.557Z,18.48
2023-03-01T07:34:16.286Z,17.38
2023-03-01T07:36:44.175Z,17.85
2023-03-01T07:39:11.878Z,18.92
2023-03-01T07:41:39.047Z,18.48
2023-03-01T07:44:05.860Z,17.00
2023-03-01T07:46:32.918Z,20.45
2023-03-01T07:48:59.739Z,16.90
2023-03-01T07:51:26.846Z,17.92
2023-03-01T07:53:53.518Z,17.83
2023-03-01T07:56:21.508Z,17.48
2023-03-01T07:58:49.968Z,17.75
2023-03-01T08:01:19.988Z,18.27
2023-03-01T08:03:47.338Z,18.38
2023-03-01T08:06:16.231Z,19.10
2023-03-01T08:08:43.238Z,17.50
2023-03-01T08:11:12.663Z,17.67
2023-03-01T08:13:39.554Z,18.35
2023-03-01T08:16:10.975Z,18.35
2023-03-01T08:18:37.905Z,17.88
2023-03-01T08:21:13.603Z,19.00
2023-03-01T08:23:41.858Z,17.40
2023-03-01T08:26:19.969Z,18.20
2023-03-01T08:28:47.845Z,19.38
2023-03-01T08:31:22.209Z,19.25
2023-03-01T08:33:55.846Z,17.67
2023-03-01T08:36:35.665Z,19.10
2023-03-01T08:39:02.384Z,18.67
2023-03-01T08:41:29.607Z,18.75
2023-03-01T08:43:59.988Z,18.50
2023-03-01T08:46:31.931Z,19.77
2023-03-01T08:48:59.377Z,17.30
2023-03-01T08:51:27.430Z,18.27
2023-03-01T08:53:54.120Z,19.17
2023-03-01T08:56:20.897Z,18.05
2023-03-01T08:58:49.141Z,18.70
2023-03-01T09:01:19.230Z,17.55
2023-03-01T09:03:46.905Z,18.23
2023-03-01T09:06:14.879Z,18.20
2023-03-01T09:08:43.932Z,18.02
2023-03-01T09:11:12.755Z,18.05
2023-03-01T09:13:40.539Z,23.02
2023-03-01T09:16:09.584Z,18.40
2023-03-01T09:18:37.062Z,19.33
2023-03-01T09:21:40.264Z,18.67
2023-03-01T09:24:16.574Z,20.10
2023-03-01T09:26:43.908Z,18.92
2023-03-01T09:29:11.054Z,18.92
2023-03-01T09:31:38.227Z,18.80
2023-03-01T09:34:05.786Z,18.15
2023-03-01T09:36:33.145Z,19.15
2023-03-01T09:39:00.945Z,18.50
2023-03-01T09:41:43.309Z,19.08
2023-03-01T09:44:37.930Z,19.73
2023-03-01T09:47:05.323Z,19.63
2023-03-01T09:49:35.620Z,20.25
2023-03-01T09:52:20.357Z,21.50
2023-03-01T09:54:47.981Z,19.02
2023-03-01T09:57:29.405Z,21.92
2023-03-01T10:00:16.824Z,19.77
2023-03-01T10:02:53.518Z,21.30
2023-03-01T10:05:37.227Z,19.05
2023-03-01T10:08:22.045Z,20.25
2023-03-01T10:10:50.175Z,21.77
2023-03-01T10:13:25.290Z,20.23
2023-03-01T10:15:58.563Z,18.95
2023-03-01T10:18:31.110Z,20.92
2023-03-01T10:21:01.565Z,19.83
2023-03-01T10:23:31.829Z,19.23
2023-03-01T10:26:07.400Z,20.63
2023-03-01T10:28:52.777Z,20.23
2023-03-01T10:31:51.004Z,19.30
2023-03-01T10:34:27.902Z,19.45
2023-03-01T10:37:01.996Z,20.00
2023-03-01T10:39:28.819Z,18.88
2023-03-01T10:42:01.846Z,19.60
2023-03-01T10:44:45.097Z,18.70
2023-03-01T10:47:16.107Z,18.88
2023-03-01T10:50:22.996Z,18.13
2023-03-01T10:53:18.024Z,19.83
2023-03-01T10:55:44.853Z,19.23
2023-03-01T10:58:23.327Z,19.13
2023-03-01T11:01:01.326Z,19.08
2023-03-01T11:03:31.981Z,18.67
2023-03-01T11:06:03.284Z,23.83
2023-03-01T11:08:36.166Z,18.73
2023-03-01T11:11:07.462Z,18.45
2023-03-01T11:13:37.424Z,19.90
2023-03-01T11:16:13.620Z,19.08
2023-03-01T11:18:48.013Z,21.20
2023-03-01T11:21:16.859Z,18.80
2023-03-01T11:23:46.612Z,19.10
2023-03-01T11:26:14.599Z,19.05
2023-03-01T11:28:43.762Z,17.67
2023-03-01T11:31:13.820Z,19.03
2023-03-01T11:34:10.993Z,18.50
2023-03-01T11:36:55.722Z,20.40
2023-03-01T11:39:44.706Z,20.00
2023-03-01T11:42:20.675Z,18.77
2023-03-01T11:44:50.787Z,17.97
2023-03-01T11:47:39.139Z,19.03
2023-03-01T11:50:36.737Z,19.33
2023-03-01T11:53:35.196Z,22.43
2023-03-01T11:56:17.658Z,19.80
2023-03-01T11:59:14.179Z,18.53
2023-03-01T12:01:55.993Z,20.10
2023-03-01T12:04:31.523Z,19.93
2023-03-01T12:07:01.809Z,20.10
2023-03-01T12:10:01.772Z,19.43
2023-03-01T12:12:49.681Z,18.80
2023-03-01T12:15:44.193Z,18.50
2023-03-01T12:18:32.624Z,21.07
2023-03-01T12:21:40.807Z,18.45
2023-03-01T12:24:29.325Z,20.60
2023-03-01T12:27:01.845Z,20.03
2023-03-01T12:29:31.683Z,20.60
2023-03-01T12:32:09.426Z,19.90
2023-03-01T12:34:54.775Z,18.70
2023-03-01T12:37:43.796Z,19.80
2023-03-01T12:40:41.683Z,21.07
2023-03-01T12:44:05.046Z,19.90
2023-03-01T12:46:57.395Z,19.73
2023-03-01T12:49:35.431Z,19.50
2023-03-01T12:52:17.631Z,18.27
2023-03-01T12:54:45.939Z,19.27
2023-03-01T12:57:38.034Z,19.47
2023-03-01T13:00:40.807Z,19.73
2023-03-01T13:03:45.091Z,20.60
2023-03-01T13:06:17.829Z,20.93
2023-03-01T13:09:01.303Z,19.23
2023-03-01T13:11:28.760Z,20.87
2023-03-01T13:14:21.569Z,20.43
2023-03-01T13:16:53.450Z,19.90
2023-03-01T13:19:25.592Z,21.07
2023-03-01T13:21:57.949Z,20.13
2023-03-01T13:24:29.211Z,19.87
2023-03-01T13:27:08.226Z,19.80
2023-03-01T13:29:51.205Z,21.40
2023-03-01T13:32:42.978Z,20.07
2023-03-01T13:35:17.723Z,20.40
2023-03-01T13:37:45.418Z,20.13
2023-03-01T13:40:19.435Z,19.53
2023-03-01T13:43:04.256Z,18.97
2023-03-01T13:45:38.221Z,21.53
2023-03-01T13:48:23.654Z,22.53
2023-03-01T13:50:54.232Z,21.47
2023-03-01T13:53:25.598Z,19.53
2023-03-01T13:55:58.716Z,20.20
2023-03-01T13:58:29.517Z,20.13
2023-03-01T14:01:08.031Z,20.47
2023-03-01T14:03:42.721Z,18.30
2023-03-01T14:06:19.725Z,19.10
2023-03-01T14:08:50.298Z,17.60
2023-03-01T14:11:34.889Z,21.30
2023-03-01T14:14:13.255Z,18.37
2023-03-01T14:17:07.309Z,18.63
2023-03-01T14:19:35.313Z,18.30
2023-03-01T14:22:24.385Z,18.73
2023-03-01T14:25:03.607Z,20.53
2023-03-01T14:27:43.247Z,18.63
2023-03-01T14:30:23.088Z,19.53
2023-03-01T14:33:02.204Z,17.77
2023-03-01T14:35:35.377Z,17.90
2023-03-01T14:38:02.776Z,16.70
2023-03-01T14:40:36.912Z,17.20
2023-03-01T14:43:11.841Z,17.50
2023-03-01T14:45:38.960Z,17.80
2023-03-01T14:48:07.929Z,18.17
2023-03-01T14:50:43.460Z,17.47
2023-03-01T14:53:22.628Z,16.73
2023-03-01T14:55:54.112Z,16.60
2023-03-01T14:58:24.399Z,17.33
2023-03-01T15:01:05.890Z,16.50
2023-03-01T15:03:38.093Z,21.97
2023-03-01T15:06:07.954Z,16.37
2023-03-01T15:08:36.332Z,17.03
2023-03-01T15:11:14.258Z,18.77
2023-03-01T15:13:41.540Z,16.50
2023-03-01T15:16:15.356Z,16.50
2023-03-01T15:18:56.054Z,18.20
2023-03-01T15:21:30.574Z,16.70
2023-03-01T15:24:12.701Z,17.53
2023-03-01T15:26:43.693Z,15.90
2023-03-01T15:29:18.988Z,17.73
2023-03-01T15:31:57.343Z,18.60
2023-03-01T15:34:37.970Z,16.17
2023-03-01T15:37:08.887Z,16.77
2023-03-01T15:39:40.576Z,19.83
2023-03-01T15:42:34.537Z,14.90
2023-03-01T15:45:21.941Z,20.17
2023-03-01T15:47:51.396Z,15.40
2023-03-01T15:50:25.157Z,14.27
2023-03-01T15:52:52.419Z,15.43
2023-03-01T15:55:30.531Z,16.27
2023-03-01T15:58:07.589Z,14.83
2023-03-01T16:00:34.594Z,14.90
2023-03-01T16:03:01.334Z,14.90
2023-03-01T16:05:35.321Z,16.20
2023-03-01T16:08:02.860Z,15.20
2023-03-01T16:10:31.084Z,15.40
2023-03-01T16:12:58.260Z,17.40
2023-03-01T16:15:32.626Z,14.97
2023-03-01T16:18:00.121Z,14.63
2023-03-01T16:20:30.115Z,15.10
2023-03-01T16:23:08.725Z,15.00
2023-03-01T16:25:36.393Z,19.87
2023-03-01T16:28:05.979Z,18.83
2023-03-01T16:30:32.924Z,20.07
2023-03-01T16:32:59.718Z,21.60
2023-03-01T16:35:26.699Z,26.17
2023-03-01T16:37:56.323Z,18.13
2023-03-01T16:40:28.711Z,17.93
2023-03-01T16:43:00.375Z,28.47
2023-03-01T16:45:36.578Z,20.97
2023-03-01T16:48:04.652Z,19.80
2023-03-01T16:50:31.486Z,20.50
2023-03-01T16:52:58.439Z,17.77
2023-03-01T16:55:25.415Z,16.40
2023-03-01T16:57:52.235Z,15.97
2023-03-01T17:00:19.323Z,16.83
2023-03-01T17:02:46.642Z,13.30
2023-03-01T17:05:13.699Z,12.13
2023-03-01T17:07:40.755Z,12.00
2023-03-01T17:10:11.197Z,11.65
2023-03-01T17:12:38.272Z,12.07
2023-03-01T17:15:06.350Z,12.10
2023-03-01T17:17:33.576Z,12.50
2023-03-01T17:20:00.571Z,19.30
2023-03-01T17:22:28.149Z,13.90
2023-03-01T17:24:54.825Z,12.73
2023-03-01T17:27:22.581Z,12.40
2023-03-01T17:29:50.068Z,12.27
2023-03-01T17:32:16.927Z,13.30
2023-03-01T17:34:43.741Z,18.80
2023-03-01T17:37:10.421Z,19.90
2023-03-01T17:39:37.696Z,18.40
2023-03-01T17:42:06.171Z,19.00
2023-03-01T17:44:36.855Z,22.08
2023-03-01T17:47:05.012Z,23.07
2023-03-01T17:49:32.464Z,23.50
2023-03-01T17:51:59.391Z,23.15
2023-03-01T17:54:26.192Z,25.90
2023-03-01T17:56:53.315Z,23.42
2023-03-01T17:59:20.053Z,23.00
2023-03-01T18:01:47.196Z,23.20
2023-03-01T18:04:14.343Z,22.92
2023-03-01T18:06:41.113Z,24.48
2023-03-01T18:09:08.722Z,20.80
2023-03-01T18:11:36.277Z,25.17
2023-03-01T18:14:03.897Z,23.67
2023-03-01T18:16:31.986Z,25.88
2023-03-01T18:18:59.542Z,26.40
2023-03-01T18:21:26.684Z,24.73
2023-03-01T18:23:53.662Z,25.63
2023-03-01T18:26:22.555Z,27.33
2023-03-01T18:28:50.889Z,26.20
2023-03-01T18:31:21.842Z,25.25
2023-03-01T18:33:51.131Z,27.48
2023-03-01T18:36:24.564Z,29.25
2023-03-01T18:38:53.922Z,31.15
2023-03-01T18:41:20.889Z,37.83
2023-03-01T18:43:47.584Z,29.48
2023-03-01T18:46:14.586Z,33.20
2023-03-01T18:48:41.493Z,33.83
2023-03-01T18:51:11.275Z,31.67
2023-03-01T18:53:38.069Z,31.60
2023-03-01T18:56:05.443Z,30.88
2023-03-01T18:58:32.279Z,30.52
2023-03-01T19:01:00.012Z,30.90
2023-03-01T19:03:28.793Z,30.25
2023-03-01T19:05:56.907Z,31.23
2023-03-01T19:08:23.664Z,27.45
2023-03-01T19:11:04.321Z,26.95
2023-03-01T19:13:32.212Z,26.55
2023-03-01T19:16:03.658Z,30.08
2023-03-01T19:18:30.469Z,26.40
2023-03-01T19:21:04.236Z,26.85
2023-03-01T19:23:34.878Z,29.73
2023-03-01T19:26:03.401Z,27.95
2023-03-01T19:28:30.744Z,28.85
2023-03-01T19:31:02.496Z,25.75
2023-03-01T19:33:30.975Z,27.10
2023-03-01T19:35:58.264Z,27.38
2023-03-01T19:38:25.297Z,27.60
2023-03-01T19:40:52.530Z,31.48
2023-03-01T19:43:19.422Z,27.50
2023-03-01T19:45:53.878Z,27.40
2023-03-01T19:48:21.961Z,28.70
2023-03-01T19:50:50.896Z,32.00
2023-03-01T19:53:17.746Z,24.10
2023-03-01T19:55:44.567Z,24.13
2023-03-01T19:58:12.311Z,24.65
2023-03-01T20:00:40.522Z,25.20
2023-03-01T20:03:07.521Z,24.33
2023-03-01T20:05:35.578Z,22.20
2023-03-01T20:08:02.791Z,24.13
2023-03-01T20:10:31.692Z,22.38
2023-03-01T20:12:59.023Z,21.83
2023-03-01T20:15:26.303Z,20.75
2023-03-01T20:17:53.057Z,20.80
2023-03-01T20:20:20.206Z,23.85
2023-03-01T20:22:47.321Z,20.42
2023-03-01T20:25:14.013Z,18.15
2023-03-01T20:27:40.934Z,19.52
2023-03-01T20:30:08.360Z,18.17
2023-03-01T20:32:35.881Z,18.05
2023-03-01T20:35:03.259Z,16.85
2023-03-01T20:37:29.948Z,17.40
2023-03-01T20:39:56.699Z,17.65
2023-03-01T20:42:23.456Z,18.70
2023-03-01T20:44:50.149Z,20.42
2023-03-01T20:47:16.938Z,16.58
2023-03-01T20:49:43.708Z,16.98
2023-03-01T20:52:10.431Z,15.88
2023-03-01T20:54:37.239Z,16.25
2023-03-01T20:57:04.035Z,17.02
2023-03-01T20:59:30.763Z,16.42
2023-03-01T21:01:57.466Z,16.17
2023-03-01T21:04:24.121Z,16.10
2023-03-01T21:06:50.939Z,16.73
2023-03-01T21:09:17.658Z,17.38
2023-03-01T21:11:44.477Z,15.85
2023-03-01T21:14:12.618Z,16.42
2023-03-01T21:16:39.662Z,17.08
2023-03-01T21:19:06.671Z,16.38
2023-03-01T21:21:33.505Z,15.40
2023-03-01T21:24:00.945Z,16.98
2023-03-01T21:26:28.261Z,17.55
2023-03-01T21:28:57.558Z,15.23
2023-03-01T21:31:32.053Z,15.98
2023-03-01T21:34:00.471Z,17.55
2023-03-01T21:36:28.967Z,17.33
2023-03-01T21:38:56.456Z,18.65
2023-03-01T21:41:29.123Z,17.00
2023-03-01T21:43:57.568Z,17.67
2023-03-01T21:46:25.909Z,18.52
2023-03-01T21:48:54.159Z,17.85
2023-03-01T21:51:25.426Z,17.35
2023-03-01T21:53:54.237Z,18.08
2023-03-01T21:56:24.306Z,17.95
2023-03-01T21:58:51.115Z,16.30
2023-03-01T22:01:21.753Z,16.08
2023-03-01T22:03:48.516Z,16.40
2023-03-01T22:06:19.822Z,15.27
2023-03-01T22:08:57.139Z,17.27
2023-03-01T22:11:26.320Z,16.45
2023-03-01T22:13:55.629Z,18.70
2023-03-01T22:16:29.239Z,17.55
2023-03-01T22:18:57.170Z,16.75
2023-03-01T22:21:24.862Z,17.42
2023-03-01T22:23:53.394Z,17.00
2023-03-01T22:26:35.225Z,17.75
2023-03-01T22:29:05.211Z,19.55
2023-03-01T22:31:32.191Z,18.02
2023-03-01T22:33:59.101Z,16.40
2023-03-01T22:36:26.861Z,17.50
2023-03-01T22:38:59.851Z,18.08
2023-03-01T22:41:32.257Z,15.73
2023-03-01T22:43:59.121Z,17.90
2023-03-01T22:46:27.519Z,15.68
2023-03-01T22:48:55.280Z,18.85
2023-03-01T22:51:28.939Z,19.63
2023-03-01T22:53:56.323Z,17.20
2023-03-01T22:56:29.371Z,18.98
2023-03-01T22:58:58.515Z,18.30
2023-03-01T23:01:26.919Z,16.95
2023-03-01T23:03:54.277Z,18.92
2023-03-01T23:06:22.128Z,18.33
2023-03-01T23:08:51.822Z,15.95
2023-03-01T23:11:19.512Z,17.48
2023-03-01T23:13:46.833Z,19.90
2023-03-01T23:16:13.961Z,17.33
2023-03-01T23:18:41.381Z,17.35
2023-03-01T23:21:14.267Z,17.95
2023-03-01T23:23:41.621Z,20.55
2023-03-01T23:26:10.155Z,20.08
2023-03-01T23:28:40.785Z,18.65
2023-03-01T23:31:10.688Z,18.65
2023-03-01T23:33:40.228Z,18.77
2023-03-01T23:36:18.233Z,19.42
2023-03-01T23:38:47.877Z,19.70
2023-03-01T23:41:18.146Z,19.27
2023-03-01T23:43:46.174Z,19.63
2023-03-01T23:46:14.661Z,19.13
2023-03-01T23:48:42.644Z,18.10
2023-03-01T23:51:10.246Z,19.77
2023-03-01T23:53:39.621Z,19.17
2023-03-01T23:56:07.231Z,19.20
2023-03-01T23:58:33.964Z,18.85
